Dry Creek, Kentucky
Current Conditions -  °F | °C
As of 12:15 PM on Saturday 25 Oct 2014 (Local Time) from KPBX Reporting Station
Clear Clear  
Wind Chill: 58°   Ceiling: Unl
Heat Index: 58°   Visibility: 10mi
Dew Point: 46°   Wind: 6mph
Humidity: 64%   Direction: 190°S
Pressure: 30.06"   Gusts: NA
Location:  37.351°N, 82.7744°W
Report Text: KPBX 251615Z AUTO 19005KT 10SM CLR 15/08 A3006 RMK AO2 T01450077
Loading
Personal Weather Stations






























Interactive Weather Map
Tropical Storm Tracking
New forecast layout! Learn more

10-Day Weather Forecast

Advertisements
Track Severe Weather on mobile